createdAt,value
2022-08-30T00:00:49.842Z,8.90
2022-08-30T00:03:52.940Z,8.32
2022-08-30T00:06:55.000Z,12.05
2022-08-30T00:09:59.118Z,8.68
2022-08-30T00:13:02.490Z,9.48
2022-08-30T00:16:07.272Z,14.48
2022-08-30T00:19:09.278Z,9.20
2022-08-30T00:22:11.804Z,8.57
2022-08-30T00:25:15.971Z,11.70
2022-08-30T00:28:18.231Z,12.63
2022-08-30T00:31:20.463Z,9.13
2022-08-30T00:34:22.406Z,12.43
2022-08-30T00:37:24.999Z,9.82
2022-08-30T00:40:28.185Z,11.93
2022-08-30T00:43:32.180Z,10.75
2022-08-30T00:46:34.583Z,9.15
2022-08-30T00:49:37.765Z,11.30
2022-08-30T00:52:41.803Z,13.30
2022-08-30T00:55:44.413Z,9.68
2022-08-30T00:58:49.612Z,13.73
2022-08-30T01:01:52.732Z,11.93
2022-08-30T01:04:55.677Z,8.93
2022-08-30T01:07:57.716Z,9.27
2022-08-30T01:11:00.227Z,9.40
2022-08-30T01:14:05.245Z,10.10
2022-08-30T01:17:07.976Z,11.25
2022-08-30T01:20:18.396Z,7.85
2022-08-30T01:23:21.536Z,15.05
2022-08-30T01:26:24.832Z,10.82
2022-08-30T01:29:26.901Z,10.35
2022-08-30T01:32:30.051Z,8.70
2022-08-30T01:35:43.969Z,12.43
2022-08-30T01:38:54.975Z,8.52
2022-08-30T01:41:56.944Z,12.10
2022-08-30T01:44:59.146Z,13.38
2022-08-30T01:48:01.669Z,9.13
2022-08-30T01:51:05.429Z,10.35
2022-08-30T01:54:10.457Z,13.98
2022-08-30T01:57:22.950Z,7.88
2022-08-30T02:00:24.998Z,12.80
2022-08-30T02:03:31.238Z,9.20
2022-08-30T02:06:33.181Z,10.18
2022-08-30T02:09:35.078Z,11.82
2022-08-30T02:12:36.923Z,11.30
2022-08-30T02:15:41.406Z,10.82
2022-08-30T02:18:45.366Z,9.20
2022-08-30T02:21:47.294Z,10.73
2022-08-30T02:24:49.339Z,9.27
2022-08-30T02:27:51.250Z,11.80
2022-08-30T02:30:53.676Z,17.73
2022-08-30T02:33:55.696Z,9.65
2022-08-30T02:36:57.510Z,11.02
2022-08-30T02:39:59.378Z,9.50
2022-08-30T02:43:01.392Z,10.30
2022-08-30T02:46:03.627Z,9.32
2022-08-30T02:49:30.283Z,11.60
2022-08-30T02:52:29.374Z,10.40
2022-08-30T02:55:31.583Z,13.48
2022-08-30T02:58:36.941Z,8.07
2022-08-30T03:01:39.627Z,13.63
2022-08-30T03:04:41.459Z,10.52
2022-08-30T03:07:45.712Z,12.10
2022-08-30T03:10:47.574Z,7.60
2022-08-30T03:13:49.605Z,8.38
2022-08-30T03:16:51.700Z,9.95
2022-08-30T03:19:54.365Z,8.23
2022-08-30T03:22:56.236Z,10.23
2022-08-30T03:25:58.163Z,10.85
2022-08-30T03:29:00.081Z,11.40
2022-08-30T03:32:02.878Z,10.30
2022-08-30T03:35:05.785Z,9.00
2022-08-30T03:38:07.786Z,11.93
2022-08-30T03:41:09.920Z,8.65
2022-08-30T03:44:12.035Z,7.68
2022-08-30T03:47:14.886Z,10.20
2022-08-30T03:50:17.438Z,9.05
2022-08-30T03:53:19.765Z,12.88
2022-08-30T03:56:22.304Z,9.85
2022-08-30T03:59:24.331Z,11.30
2022-08-30T04:02:26.928Z,10.88
2022-08-30T04:05:29.444Z,15.43
2022-08-30T04:08:31.527Z,11.43
2022-08-30T04:11:34.479Z,12.13
2022-08-30T04:14:36.365Z,13.05
2022-08-30T04:17:38.333Z,13.55
2022-08-30T04:20:40.518Z,10.98
2022-08-30T04:23:43.703Z,12.00
2022-08-30T04:26:46.059Z,13.38
2022-08-30T04:29:48.366Z,8.10
2022-08-30T04:32:52.064Z,10.50
2022-08-30T04:36:04.087Z,10.95
2022-08-30T04:39:07.385Z,12.65
2022-08-30T04:42:11.789Z,7.85
2022-08-30T04:45:16.431Z,8.23
2022-08-30T04:48:18.677Z,7.03
2022-08-30T04:51:20.709Z,7.53
2022-08-30T04:54:22.832Z,11.95
2022-08-30T04:57:25.718Z,7.72
2022-08-30T05:00:28.049Z,7.97
2022-08-30T05:03:30.594Z,8.93
2022-08-30T05:06:32.708Z,7.97
2022-08-30T05:09:34.717Z,12.30
2022-08-30T05:12:36.696Z,10.13
2022-08-30T05:15:40.757Z,8.75
2022-08-30T05:18:42.703Z,12.77
2022-08-30T05:21:45.298Z,12.45
2022-08-30T05:24:47.580Z,14.38
2022-08-30T05:27:49.614Z,6.80
2022-08-30T05:30:54.121Z,9.13
2022-08-30T05:33:56.552Z,8.27
2022-08-30T05:36:59.825Z,8.35
2022-08-30T05:40:11.105Z,7.82
2022-08-30T05:43:14.469Z,7.10
2022-08-30T05:46:20.157Z,7.22
2022-08-30T05:49:22.454Z,12.55
2022-08-30T05:52:24.445Z,8.82
2022-08-30T05:55:29.682Z,8.90
2022-08-30T05:58:32.058Z,7.15
2022-08-30T06:01:38.023Z,10.77
2022-08-30T06:04:42.037Z,8.47
2022-08-30T06:07:46.039Z,6.22
2022-08-30T06:10:49.530Z,9.98
2022-08-30T06:13:54.137Z,7.70
2022-08-30T06:16:56.112Z,12.13
2022-08-30T06:19:59.235Z,8.70
2022-08-30T06:23:01.718Z,7.78
2022-08-30T06:26:06.001Z,7.97
2022-08-30T06:29:10.125Z,7.05
2022-08-30T06:32:12.279Z,9.80
2022-08-30T06:35:14.583Z,13.57
2022-08-30T06:38:19.261Z,4.78
2022-08-30T06:41:24.230Z,5.07
2022-08-30T06:44:27.004Z,7.43
2022-08-30T06:47:30.192Z,7.00
2022-08-30T06:50:32.601Z,6.20
2022-08-30T06:53:36.138Z,6.18
2022-08-30T06:56:40.330Z,5.60
2022-08-30T06:59:44.889Z,4.75
2022-08-30T07:02:47.318Z,7.35
2022-08-30T07:05:50.907Z,6.30
2022-08-30T07:08:56.430Z,4.78
2022-08-30T07:12:03.393Z,7.55
2022-08-30T07:15:08.223Z,3.40
2022-08-30T07:18:30.812Z,5.45
2022-08-30T07:21:36.482Z,6.40
2022-08-30T07:24:38.970Z,12.93
2022-08-30T07:27:41.839Z,6.95
2022-08-30T07:30:44.151Z,6.18
2022-08-30T07:33:48.044Z,4.65
2022-08-30T07:36:50.281Z,5.55
2022-08-30T07:39:52.709Z,11.30
2022-08-30T07:42:55.341Z,3.08
2022-08-30T07:46:05.882Z,9.98
2022-08-30T07:49:11.096Z,3.83
2022-08-30T07:52:13.927Z,5.27
2022-08-30T07:55:16.604Z,8.32
2022-08-30T07:58:21.780Z,4.65
2022-08-30T08:01:24.224Z,3.63
2022-08-30T08:28:02.854Z,7.45
2022-08-30T08:31:18.231Z,5.07
2022-08-30T08:34:23.825Z,7.75
2022-08-30T08:37:28.268Z,4.10
2022-08-30T08:40:36.602Z,4.38
2022-08-30T08:43:38.864Z,4.45
2022-08-30T08:46:58.190Z,7.80
2022-08-30T08:50:05.931Z,4.82
2022-08-30T08:53:52.766Z,6.28
2022-08-30T08:56:55.115Z,4.80
2022-08-30T09:00:00.479Z,6.90
2022-08-30T09:03:05.974Z,7.75
2022-08-30T09:06:46.081Z,7.22
2022-08-30T09:09:49.081Z,3.63
2022-08-30T09:12:51.184Z,3.95
2022-08-30T09:15:59.588Z,4.97
2022-08-30T09:19:02.789Z,6.03
2022-08-30T09:22:24.874Z,4.90
2022-08-30T09:25:41.859Z,4.07
2022-08-30T09:28:49.475Z,4.63
2022-08-30T09:32:22.532Z,3.45
2022-08-30T09:35:37.756Z,2.83
2022-08-30T09:38:40.121Z,4.30
2022-08-30T09:41:44.986Z,3.22
2022-08-30T09:44:47.343Z,3.67
2022-08-30T09:47:49.430Z,5.97
2022-08-30T09:51:06.126Z,5.07
2022-08-30T09:57:53.342Z,3.72
2022-08-30T10:01:20.473Z,5.45
2022-08-30T10:04:41.434Z,4.47
2022-08-30T10:08:19.560Z,2.92
2022-08-30T10:11:43.962Z,3.97
2022-08-30T10:14:49.583Z,3.90
2022-08-30T10:17:56.269Z,6.85
2022-08-30T10:21:19.034Z,3.87
2022-08-30T10:24:31.238Z,7.95
2022-08-30T10:27:42.963Z,8.23
2022-08-30T10:30:54.138Z,4.60
2022-08-30T10:34:01.194Z,3.72
2022-08-30T10:37:12.481Z,5.93
2022-08-30T10:40:53.334Z,5.72
2022-08-30T10:44:00.113Z,4.05
2022-08-30T10:47:23.113Z,3.47
2022-08-30T10:50:30.018Z,2.28
2022-08-30T10:53:39.836Z,4.75
2022-08-30T10:56:43.928Z,6.20
2022-08-30T10:59:51.229Z,3.60
2022-08-30T11:03:12.045Z,2.78
2022-08-30T11:06:53.883Z,6.03
2022-08-30T11:10:26.296Z,3.17
2022-08-30T11:13:30.798Z,6.05
2022-08-30T11:16:48.470Z,2.75
2022-08-30T11:19:51.086Z,5.78
2022-08-30T11:23:16.105Z,3.55
2022-08-30T11:26:48.603Z,4.03
2022-08-30T11:29:50.958Z,3.33
2022-08-30T11:33:09.847Z,2.22
2022-08-30T11:36:37.401Z,4.30
2022-08-30T11:39:41.029Z,4.82
2022-08-30T11:42:46.196Z,3.20
2022-08-30T11:45:52.711Z,6.00
2022-08-30T11:49:15.588Z,2.47
2022-08-30T11:52:46.947Z,4.95
2022-08-30T11:56:10.449Z,3.35
2022-08-30T11:59:27.854Z,9.77
2022-08-30T12:02:53.168Z,4.00
2022-08-30T12:06:01.547Z,5.25
2022-08-30T12:09:08.303Z,3.55
2022-08-30T12:12:13.059Z,6.95
2022-08-30T12:15:48.149Z,6.07
2022-08-30T12:18:53.492Z,3.78
2022-08-30T12:22:06.163Z,3.47
2022-08-30T12:25:35.190Z,5.63
2022-08-30T12:28:42.102Z,5.80
2022-08-30T12:31:56.135Z,2.88
2022-08-30T12:35:07.610Z,2.75
2022-08-30T12:38:26.767Z,3.45
2022-08-30T12:41:43.479Z,2.85
2022-08-30T12:44:48.050Z,2.40
2022-08-30T12:47:58.834Z,5.60
2022-08-30T12:51:01.262Z,2.90
2022-08-30T12:54:20.794Z,3.13
2022-08-30T12:57:37.545Z,4.50
2022-08-30T13:00:47.373Z,4.88
2022-08-30T13:04:17.449Z,3.15
2022-08-30T13:07:32.540Z,3.42
2022-08-30T13:10:36.737Z,4.78
2022-08-30T13:13:51.973Z,3.75
2022-08-30T13:17:06.843Z,7.65
2022-08-30T13:20:12.747Z,5.20
2022-08-30T13:23:23.964Z,2.40
2022-08-30T13:26:29.510Z,8.27
2022-08-30T13:29:34.893Z,3.05
2022-08-30T13:32:39.056Z,9.25
2022-08-30T13:35:42.770Z,3.92
2022-08-30T13:38:45.041Z,4.93
2022-08-30T13:41:47.436Z,4.15
2022-08-30T13:44:49.443Z,3.50
2022-08-30T13:47:52.581Z,4.90
2022-08-30T13:50:56.032Z,5.60
2022-08-30T13:53:58.551Z,3.97
2022-08-30T13:57:02.885Z,3.55
2022-08-30T14:00:14.487Z,4.93
2022-08-30T14:03:18.508Z,3.88
2022-08-30T14:06:33.610Z,2.00
2022-08-30T14:09:38.605Z,6.88
2022-08-30T14:13:02.543Z,4.18
2022-08-30T14:19:29.454Z,3.58
2022-08-30T14:22:32.024Z,3.50
2022-08-30T14:25:34.932Z,3.20
2022-08-30T14:28:37.299Z,5.53
2022-08-30T14:31:41.701Z,5.43
2022-08-30T14:34:43.794Z,5.72
2022-08-30T14:37:49.020Z,3.28
2022-08-30T14:40:51.556Z,4.03
2022-08-30T14:43:53.815Z,3.88
2022-08-30T14:46:57.029Z,3.08
2022-08-30T14:50:01.315Z,2.72
2022-08-30T14:53:05.433Z,3.78
2022-08-30T14:56:13.640Z,5.18
2022-08-30T14:59:16.534Z,7.15
2022-08-30T15:02:22.124Z,4.85
2022-08-30T15:05:27.526Z,3.03
2022-08-30T15:08:33.485Z,4.87
2022-08-30T15:11:39.046Z,3.45
2022-08-30T15:14:41.592Z,5.38
2022-08-30T15:17:45.763Z,4.70
2022-08-30T15:20:49.569Z,3.67
2022-08-30T15:23:52.411Z,3.63
2022-08-30T15:26:54.793Z,3.90
2022-08-30T15:29:56.797Z,3.92
2022-08-30T15:32:59.357Z,11.45
2022-08-30T15:36:04.327Z,3.42
2022-08-30T15:39:14.005Z,3.70
2022-08-30T15:42:19.526Z,3.95
2022-08-30T15:45:22.776Z,4.53
2022-08-30T15:48:25.342Z,4.88
2022-08-30T15:51:28.641Z,5.00
2022-08-30T15:54:35.449Z,8.80
2022-08-30T15:57:37.749Z,5.93
2022-08-30T16:00:44.895Z,4.70
2022-08-30T16:03:47.770Z,8.02
2022-08-30T16:06:51.565Z,3.30
2022-08-30T16:09:54.547Z,9.57
2022-08-30T16:13:00.538Z,6.82
2022-08-30T16:16:05.718Z,6.32
2022-08-30T16:19:09.037Z,9.98
2022-08-30T16:22:11.776Z,7.20
2022-08-30T16:25:14.952Z,4.53
2022-08-30T16:28:18.024Z,4.10
2022-08-30T16:31:21.661Z,5.20
2022-08-30T16:34:24.913Z,7.30
2022-08-30T16:37:28.222Z,6.30
2022-08-30T16:40:31.213Z,10.55
2022-08-30T16:43:34.193Z,4.75
2022-08-30T16:46:37.130Z,6.45
2022-08-30T16:49:39.816Z,5.57
2022-08-30T16:52:44.322Z,4.38
2022-08-30T16:55:46.459Z,5.30
2022-08-30T16:58:49.543Z,5.07
2022-08-30T17:01:52.296Z,4.93
2022-08-30T17:04:54.631Z,6.20
2022-08-30T17:07:59.438Z,5.60
2022-08-30T17:11:01.695Z,10.93
2022-08-30T17:14:05.845Z,4.97
2022-08-30T17:17:10.698Z,3.45
2022-08-30T17:20:13.833Z,4.45
2022-08-30T17:23:15.981Z,4.82
2022-08-30T17:26:18.611Z,5.68
2022-08-30T17:29:21.699Z,6.90
2022-08-30T17:32:24.089Z,6.50
2022-08-30T17:35:27.020Z,4.85
2022-08-30T17:38:30.061Z,6.53
2022-08-30T17:41:32.936Z,3.45
2022-08-30T17:44:36.481Z,7.57
2022-08-30T17:47:40.085Z,5.45
2022-08-30T17:50:42.376Z,4.32
2022-08-30T17:53:45.112Z,8.43
2022-08-30T17:56:48.463Z,5.07
2022-08-30T17:59:50.772Z,4.00
2022-08-30T18:02:54.127Z,5.47
2022-08-30T18:05:56.525Z,4.32
2022-08-30T18:08:59.372Z,4.97
2022-08-30T18:12:01.820Z,4.03
2022-08-30T18:15:12.117Z,5.40
2022-08-30T18:18:15.482Z,3.42
2022-08-30T18:21:22.111Z,2.88
2022-08-30T18:24:25.225Z,5.13
2022-08-30T18:27:28.337Z,5.53
2022-08-30T18:30:34.717Z,4.88
2022-08-30T18:33:42.840Z,4.13
2022-08-30T18:36:46.094Z,3.90
2022-08-30T18:39:50.413Z,4.75
2022-08-30T18:42:57.393Z,5.45
2022-08-30T18:46:05.251Z,3.95
2022-08-30T18:49:07.366Z,4.90
2022-08-30T18:52:11.195Z,2.83
2022-08-30T18:55:14.123Z,4.43
2022-08-30T18:58:17.314Z,4.60
2022-08-30T19:01:23.041Z,2.88
2022-08-30T19:04:30.149Z,3.55
2022-08-30T19:07:37.762Z,3.35
2022-08-30T19:10:41.532Z,2.58
2022-08-30T19:13:45.097Z,4.57
2022-08-30T19:16:47.550Z,5.18
2022-08-30T19:19:52.404Z,3.97
2022-08-30T19:23:08.830Z,3.27
2022-08-30T19:26:11.870Z,2.78
2022-08-30T19:29:14.803Z,3.22
2022-08-30T19:32:17.115Z,5.57
2022-08-30T19:35:20.722Z,2.95
2022-08-30T19:38:23.544Z,5.47
2022-08-30T19:41:30.572Z,3.65
2022-08-30T19:44:32.652Z,6.03
2022-08-30T19:47:35.145Z,4.10
2022-08-30T19:50:37.962Z,3.67
2022-08-30T19:53:40.593Z,8.23
2022-08-30T19:56:43.807Z,5.35
2022-08-30T19:59:46.176Z,4.22
2022-08-30T20:02:51.172Z,5.53
2022-08-30T20:05:54.528Z,3.30
2022-08-30T20:12:20.500Z,3.17
2022-08-30T20:15:23.601Z,4.07
2022-08-30T20:18:26.418Z,2.78
2022-08-30T20:21:29.125Z,5.03
2022-08-30T20:24:33.402Z,4.97
2022-08-30T20:27:37.251Z,6.55
2022-08-30T20:30:39.328Z,3.38
2022-08-30T20:33:41.541Z,2.40
2022-08-30T20:36:44.049Z,5.68
2022-08-30T20:39:46.603Z,5.00
2022-08-30T20:42:49.297Z,4.72
2022-08-30T20:45:52.409Z,3.35
2022-08-30T20:48:54.492Z,2.92
2022-08-30T20:51:56.799Z,3.20
2022-08-30T20:54:58.741Z,2.13
2022-08-30T20:58:01.182Z,2.92
2022-08-30T21:01:03.957Z,6.55
2022-08-30T21:04:07.038Z,5.30
2022-08-30T21:07:09.237Z,5.38
2022-08-30T21:10:12.275Z,4.68
2022-08-30T21:13:14.471Z,2.78
2022-08-30T21:16:17.294Z,2.88
2022-08-30T21:19:24.225Z,4.47
2022-08-30T21:22:26.651Z,4.82
2022-08-30T21:25:28.958Z,3.15
2022-08-30T21:28:31.305Z,3.60
2022-08-30T21:31:33.584Z,4.07
2022-08-30T21:34:54.574Z,5.82
2022-08-30T21:37:56.788Z,7.43
2022-08-30T21:40:59.196Z,6.68
2022-08-30T21:44:03.634Z,3.13
2022-08-30T21:47:06.624Z,4.85
2022-08-30T21:50:11.729Z,6.40
2022-08-30T21:53:17.145Z,5.90
2022-08-30T21:56:22.074Z,3.95
2022-08-30T21:59:24.308Z,8.40
2022-08-30T22:02:26.318Z,4.20
2022-08-30T22:05:28.426Z,4.75
2022-08-30T22:08:30.446Z,4.18
2022-08-30T22:11:34.555Z,3.45
2022-08-30T22:14:36.859Z,3.67
2022-08-30T22:17:39.169Z,5.93
2022-08-30T22:20:41.452Z,4.72
2022-08-30T22:23:45.183Z,3.67
2022-08-30T22:26:47.680Z,2.65
2022-08-30T22:29:50.130Z,4.43
2022-08-30T22:32:52.671Z,4.70
2022-08-30T22:35:55.587Z,4.05
2022-08-30T22:38:58.215Z,6.70
2022-08-30T22:42:00.432Z,3.85
2022-08-30T22:45:02.502Z,5.00
2022-08-30T22:48:04.467Z,3.08
2022-08-30T22:51:07.419Z,8.43
2022-08-30T22:54:10.413Z,3.42
2022-08-30T22:57:15.905Z,5.47
2022-08-30T23:00:20.268Z,3.10
2022-08-30T23:03:22.652Z,3.42
2022-08-30T23:06:25.413Z,3.38
2022-08-30T23:09:29.090Z,3.45
2022-08-30T23:12:31.502Z,4.40
2022-08-30T23:15:33.289Z,5.45
2022-08-30T23:18:38.347Z,3.30
2022-08-30T23:21:40.161Z,4.32
2022-08-30T23:25:00.721Z,3.30
2022-08-30T23:28:21.268Z,7.18
2022-08-30T23:31:41.955Z,2.45
2022-08-30T23:35:03.096Z,3.00
2022-08-30T23:38:24.477Z,3.67
2022-08-30T23:41:45.041Z,3.50
2022-08-30T23:45:05.650Z,3.80
2022-08-30T23:48:26.317Z,6.40
2022-08-30T23:51:47.383Z,3.90
2022-08-30T23:55:08.351Z,9.70
2022-08-30T23:58:28.848Z,9.45
